Terminal Aerodrome Forecast
Issued by NWS North Platte, NE

Home | Current Version | Previous Version | Text Only | Print | Product List | Glossary On
Versions: 1 2 3 4 5 6 7 8 9 10 11 12
000
FTUS43 KLBF 210500
TAFVTN
TAF
KVTN 210520Z 2106/2206 21011KT P6SM SKC
     FM211600 19015G20KT P6SM SKC
     FM211800 18020G27KT P6SM SCT150
     FM220100 17015KT P6SM SCT150=

USA.gov is the U.S. government's official web portal to all federal, state and local government web resources and services.